Time;durP1;ratioP1;P1;durP2;ratioP2;P2;SDS_P1;SDS_P2;PMS_P1;PMS_P2;Temp;Humidity;BMP_temperature;BMP_pressure;BME280_temperature;BME280_humidity;BME280_pressure;Samples;Min_cycle;Max_cycle;Signal;HPM_P1;HPM_P2
2021/11/03 00:00:09;;;;;;;27.00;19.75;;;;;;;;;;2086628;28;20592;-56
2021/11/03 00:01:12;;;;;;;26.35;18.77;;;;;;;;;;2094414;28;20647;-59
2021/11/03 00:02:12;;;;;;;31.17;19.30;;;;;;;;;;2081744;28;20195;-55
2021/11/03 00:03:13;;;;;;;28.10;19.92;;;;;;;;;;2080606;28;20785;-55
2021/11/03 00:04:13;;;;;;;28.60;20.92;;;;;;;;;;2083225;28;20187;-55
2021/11/03 00:05:14;;;;;;;26.27;19.30;;;;;;;;;;2084916;28;20242;-56
2021/11/03 00:06:16;;;;;;;29.55;21.65;;;;;;;;;;2083772;28;20180;-57
2021/11/03 00:07:17;;;;;;;31.40;21.65;;;;;;;;;;2088794;28;20629;-54
2021/11/03 00:08:19;;;;;;;28.38;20.67;;;;;;;;;;2090539;28;20167;-58
2021/11/03 00:09:19;;;;;;;34.63;22.90;;;;;;;;;;2092698;28;20190;-54
2021/11/03 00:10:19;;;;;;;30.02;21.75;;;;;;;;;;2072345;28;20215;-60
2021/11/03 00:11:19;;;;;;;31.50;21.77;;;;;;;;;;2075486;28;20193;-54
2021/11/03 00:12:20;;;;;;;33.92;22.13;;;;;;;;;;2085106;28;20194;-53
2021/11/03 00:13:22;;;;;;;32.85;23.52;;;;;;;;;;2088049;28;20175;-57
2021/11/03 00:14:23;;;;;;;33.80;22.65;;;;;;;;;;2093942;28;20162;-55
2021/11/03 00:15:23;;;;;;;33.22;23.65;;;;;;;;;;2095448;28;20189;-55
2021/11/03 00:16:23;;;;;;;36.88;23.83;;;;;;;;;;2092875;28;20187;-55
2021/11/03 00:17:24;;;;;;;32.63;22.55;;;;;;;;;;2087419;28;20211;-55
2021/11/03 00:18:24;;;;;;;33.95;23.55;;;;;;;;;;2081749;28;20175;-55
2021/11/03 00:19:25;;;;;;;37.22;24.70;;;;;;;;;;2081177;28;20180;-58
2021/11/03 00:20:25;;;;;;;38.17;25.30;;;;;;;;;;2090404;28;20183;-53
2021/11/03 00:21:25;;;;;;;38.33;25.60;;;;;;;;;;2084457;28;20609;-55
2021/11/03 00:22:25;;;;;;;38.80;26.35;;;;;;;;;;2082978;28;20267;-55
2021/11/03 00:23:26;;;;;;;41.40;26.33;;;;;;;;;;2082641;28;20877;-53
2021/11/03 00:24:26;;;;;;;42.07;27.23;;;;;;;;;;2084965;28;20182;-55
2021/11/03 00:25:26;;;;;;;38.90;26.63;;;;;;;;;;2095509;28;20183;-53
2021/11/03 00:26:26;;;;;;;41.10;28.07;;;;;;;;;;2086802;28;20200;-56
2021/11/03 00:27:27;;;;;;;40.93;27.77;;;;;;;;;;2091552;28;20186;-59
2021/11/03 00:28:28;;;;;;;42.17;27.93;;;;;;;;;;2079245;28;20227;-57
2021/11/03 00:29:29;;;;;;;40.25;28.52;;;;;;;;;;2081027;28;20248;-56
2021/11/03 00:30:29;;;;;;;42.03;28.63;;;;;;;;;;2091398;28;20468;-56
2021/11/03 00:31:29;;;;;;;42.38;26.95;;;;;;;;;;2082012;28;20227;-55
2021/11/03 00:32:30;;;;;;;45.67;29.50;;;;;;;;;;2080516;28;20268;-56
2021/11/03 00:33:31;;;;;;;45.87;29.47;;;;;;;;;;2075725;28;20176;-52
2021/11/03 00:34:32;;;;;;;44.25;29.85;;;;;;;;;;2086890;28;20199;-55
2021/11/03 00:35:32;;;;;;;48.47;30.77;;;;;;;;;;2090923;28;20168;-58
2021/11/03 00:36:33;;;;;;;48.08;31.38;;;;;;;;;;2084861;28;20868;-55
2021/11/03 00:37:33;;;;;;;47.27;31.67;;;;;;;;;;2082258;28;20206;-56
2021/11/03 00:38:33;;;;;;;53.10;32.57;;;;;;;;;;2081900;28;20172;-59
2021/11/03 00:39:34;;;;;;;47.93;32.37;;;;;;;;;;2079644;28;20172;-57
2021/11/03 00:40:35;;;;;;;54.10;32.92;;;;;;;;;;2081711;28;20182;-56
2021/11/03 00:41:35;;;;;;;51.30;32.47;;;;;;;;;;2088147;28;20963;-56
2021/11/03 00:42:36;;;;;;;51.60;35.30;;;;;;;;;;2074523;28;20181;-58
2021/11/03 00:43:37;;;;;;;52.30;33.13;;;;;;;;;;2078397;28;20188;-57
2021/11/03 00:44:37;;;;;;;54.93;33.03;;;;;;;;;;2082454;28;20186;-54
2021/11/03 00:45:38;;;;;;;61.50;35.17;;;;;;;;;;2080804;28;20255;-58
2021/11/03 00:46:40;;;;;;;54.43;34.03;;;;;;;;;;2075006;28;20196;-58
2021/11/03 00:47:41;;;;;;;56.80;35.63;;;;;;;;;;2074840;28;20177;-54
2021/11/03 00:48:42;;;;;;;53.35;35.33;;;;;;;;;;2078703;28;20656;-58
2021/11/03 00:49:42;;;;;;;62.37;36.50;;;;;;;;;;2073273;28;20247;-57
2021/11/03 00:50:44;;;;;;;62.13;37.60;;;;;;;;;;2076273;28;20689;-54
2021/11/03 00:51:45;;;;;;;59.00;35.53;;;;;;;;;;2081507;28;20269;-56
2021/11/03 00:52:46;;;;;;;63.10;37.23;;;;;;;;;;2073277;28;20181;-56
2021/11/03 00:53:46;;;;;;;62.00;36.77;;;;;;;;;;2066377;28;20169;-54
2021/11/03 00:54:48;;;;;;;61.07;38.33;;;;;;;;;;2088764;28;20656;-56
2021/11/03 00:55:48;;;;;;;61.37;36.83;;;;;;;;;;2081753;28;20184;-58
2021/11/03 00:56:50;;;;;;;60.80;35.88;;;;;;;;;;2080331;28;20204;-59
2021/11/03 00:57:52;;;;;;;58.45;36.88;;;;;;;;;;2077737;28;20181;-59
2021/11/03 00:58:53;;;;;;;59.53;36.90;;;;;;;;;;2081914;28;20238;-57
2021/11/03 00:59:54;;;;;;;66.53;38.83;;;;;;;;;;2088651;28;20210;-58
2021/11/03 01:00:54;;;;;;;62.67;38.90;;;;;;;;;;2084458;28;20215;-58
2021/11/03 01:01:54;;;;;;;60.63;38.37;;;;;;;;;;2096323;28;20190;-56
2021/11/03 01:02:55;;;;;;;63.55;39.38;;;;;;;;;;2086633;28;20641;-59
2021/11/03 01:03:56;;;;;;;63.60;39.00;;;;;;;;;;2086407;28;20187;-57
2021/11/03 01:04:56;;;;;;;60.80;37.50;;;;;;;;;;2076036;28;20169;-57
2021/11/03 01:05:57;;;;;;;63.57;38.27;;;;;;;;;;2088960;28;20213;-58
2021/11/03 01:06:57;;;;;;;64.43;38.87;;;;;;;;;;2076770;28;20185;-59
2021/11/03 01:07:57;;;;;;;66.37;40.57;;;;;;;;;;2086496;28;20184;-57
2021/11/03 01:08:57;;;;;;;64.00;38.67;;;;;;;;;;2074863;28;20292;-57
2021/11/03 01:09:58;;;;;;;74.90;41.50;;;;;;;;;;2080222;28;20180;-58
2021/11/03 01:10:58;;;;;;;72.27;42.50;;;;;;;;;;2083649;28;20206;-58
2021/11/03 01:11:59;;;;;;;68.57;42.73;;;;;;;;;;2081065;28;20180;-57
2021/11/03 01:12:59;;;;;;;76.32;43.28;;;;;;;;;;2071066;28;20256;-57
2021/11/03 01:13:59;;;;;;;69.75;44.05;;;;;;;;;;2076795;28;20172;-60
2021/11/03 01:15:00;;;;;;;74.68;45.50;;;;;;;;;;2080984;28;20185;-57
2021/11/03 01:16:01;;;;;;;71.85;45.17;;;;;;;;;;2080540;28;20294;-56
2021/11/03 01:17:01;;;;;;;81.57;45.97;;;;;;;;;;2082865;28;20171;-58
2021/11/03 01:18:02;;;;;;;75.82;45.97;;;;;;;;;;2075372;28;20209;-59
2021/11/03 01:19:02;;;;;;;78.13;46.77;;;;;;;;;;2080516;28;20168;-58
2021/11/03 01:20:07;;;;;;;73.93;44.67;;;;;;;;;;2086628;28;20176;-58
2021/11/03 01:21:08;;;;;;;69.65;43.83;;;;;;;;;;2093924;28;20254;-56
2021/11/03 01:22:08;;;;;;;70.47;43.47;;;;;;;;;;2080647;28;20236;-57
2021/11/03 01:23:09;;;;;;;74.77;45.63;;;;;;;;;;2080932;28;20172;-56
2021/11/03 01:24:09;;;;;;;77.53;44.67;;;;;;;;;;2086968;28;20192;-56
2021/11/03 01:25:11;;;;;;;71.37;45.03;;;;;;;;;;2083855;28;20262;-57
2021/11/03 01:26:11;;;;;;;74.03;44.83;;;;;;;;;;2082288;28;20819;-57
2021/11/03 01:27:11;;;;;;;74.70;45.77;;;;;;;;;;2086244;28;20180;-56
2021/11/03 01:28:11;;;;;;;84.47;48.93;;;;;;;;;;2083284;28;20239;-58
2021/11/03 01:29:12;;;;;;;83.83;49.70;;;;;;;;;;2097045;28;20666;-50
2021/11/03 01:30:14;;;;;;;80.20;49.77;;;;;;;;;;2090248;28;20181;-55
2021/11/03 01:31:15;;;;;;;85.97;48.67;;;;;;;;;;2084545;28;20207;-58
2021/11/03 01:32:15;;;;;;;87.47;50.80;;;;;;;;;;2080524;28;20172;-55
2021/11/03 01:33:16;;;;;;;87.90;51.07;;;;;;;;;;2071684;28;20530;-57
2021/11/03 01:34:17;;;;;;;95.77;52.43;;;;;;;;;;2077104;28;20238;-57
2021/11/03 01:35:17;;;;;;;85.23;51.00;;;;;;;;;;2076376;28;20165;-59
2021/11/03 01:36:18;;;;;;;92.77;53.37;;;;;;;;;;2072601;28;20604;-60
2021/11/03 01:37:18;;;;;;;99.17;53.67;;;;;;;;;;2072664;28;20875;-57
2021/11/03 01:38:18;;;;;;;86.67;52.47;;;;;;;;;;2069477;28;20270;-57
2021/11/03 01:39:18;;;;;;;89.70;51.63;;;;;;;;;;2078368;28;20213;-55
2021/11/03 01:40:21;;;;;;;91.53;50.70;;;;;;;;;;2092222;28;20651;-57
2021/11/03 01:41:22;;;;;;;91.03;50.30;;;;;;;;;;2096511;28;20195;-58
2021/11/03 01:42:24;;;;;;;91.83;51.37;;;;;;;;;;2088962;28;20186;-56
2021/11/03 01:43:39;;;;;;;93.87;51.77;;;;;;;;;;2082950;28;20172;-55
2021/11/03 01:44:41;;;;;;;85.80;51.00;;;;;;;;;;2082721;28;20180;-54
2021/11/03 01:45:41;;;;;;;94.53;50.63;;;;;;;;;;2077103;28;20188;-57
2021/11/03 01:46:53;;;;;;;86.53;50.47;;;;;;;;;;2088874;28;20266;-57
2021/11/03 01:48:01;;;;;;;91.40;51.37;;;;;;;;;;2074274;28;20199;-56
2021/11/03 01:49:11;;;;;;;88.73;48.73;;;;;;;;;;2080995;28;20184;-57
2021/11/03 01:50:23;;;;;;;90.63;51.13;;;;;;;;;;2083759;28;20778;-57
2021/11/03 01:51:28;;;;;;;94.90;52.67;;;;;;;;;;2076772;28;20195;-57
2021/11/03 01:52:28;;;;;;;104.20;53.77;;;;;;;;;;2073529;28;20240;-51
2021/11/03 01:53:29;;;;;;;98.80;51.67;;;;;;;;;;2064666;28;20224;-54
2021/11/03 01:54:33;;;;;;;92.30;54.40;;;;;;;;;;2069702;28;20177;-58
2021/11/03 01:55:34;;;;;;;96.33;53.30;;;;;;;;;;2078868;28;20314;-57
2021/11/03 01:56:35;;;;;;;99.70;53.77;;;;;;;;;;2083208;28;20171;-54
2021/11/03 01:57:38;;;;;;;100.17;51.50;;;;;;;;;;2083410;28;20175;-56
2021/11/03 01:58:46;;;;;;;100.27;52.70;;;;;;;;;;2071624;28;20638;-54
2021/11/03 01:59:47;;;;;;;102.33;53.60;;;;;;;;;;2072542;28;20897;-55
2021/11/03 02:00:50;;;;;;;101.03;53.87;;;;;;;;;;2078673;28;20208;-54
2021/11/03 02:01:51;;;;;;;91.67;52.07;;;;;;;;;;2073540;28;20705;-56
2021/11/03 02:02:54;;;;;;;100.03;55.80;;;;;;;;;;2082375;28;20180;-57
2021/11/03 02:03:55;;;;;;;104.17;52.37;;;;;;;;;;2077870;28;20831;-54
2021/11/03 02:04:55;;;;;;;95.77;53.43;;;;;;;;;;2079731;28;20180;-53
2021/11/03 02:05:58;;;;;;;93.83;51.00;;;;;;;;;;2079480;28;20267;-51
2021/11/03 02:07:00;;;;;;;90.70;50.47;;;;;;;;;;2081963;28;20755;-56
2021/11/03 02:08:01;;;;;;;97.10;51.67;;;;;;;;;;2078235;28;20172;-52
2021/11/03 02:09:02;;;;;;;94.20;54.67;;;;;;;;;;2068593;28;20700;-54
2021/11/03 02:10:03;;;;;;;95.43;52.60;;;;;;;;;;2073475;28;20197;-56
2021/11/03 02:11:04;;;;;;;96.17;51.30;;;;;;;;;;2071625;28;20201;-58
2021/11/03 02:12:04;;;;;;;99.20;54.10;;;;;;;;;;2071648;28;20177;-55
2021/11/03 02:13:08;;;;;;;98.77;53.60;;;;;;;;;;2071875;28;20219;-55
2021/11/03 02:14:08;;;;;;;94.90;52.73;;;;;;;;;;2075964;28;20230;-56
2021/11/03 02:15:09;;;;;;;97.33;52.77;;;;;;;;;;2081677;28;20171;-58
2021/11/03 02:16:11;;;;;;;99.67;54.07;;;;;;;;;;2083460;28;20188;-55
2021/11/03 02:17:13;;;;;;;96.60;52.83;;;;;;;;;;2094267;28;20183;-58
2021/11/03 02:18:15;;;;;;;96.30;53.83;;;;;;;;;;2081210;28;20170;-58
2021/11/03 02:19:22;;;;;;;102.30;53.70;;;;;;;;;;2084978;28;20206;-57
2021/11/03 02:20:24;;;;;;;92.90;50.87;;;;;;;;;;2082964;28;20179;-54
2021/11/03 02:21:35;;;;;;;94.87;51.17;;;;;;;;;;2073864;28;20200;-53
2021/11/03 02:22:38;;;;;;;97.40;49.00;;;;;;;;;;2079111;28;20176;-58
2021/11/03 02:23:41;;;;;;;95.47;49.60;;;;;;;;;;2068476;28;20177;-54
2021/11/03 02:25:00;;;;;;;101.97;52.87;;;;;;;;;;2087083;28;20183;-56
2021/11/03 02:26:09;;;;;;;94.70;49.73;;;;;;;;;;2089039;28;20167;-54
2021/11/03 02:27:11;;;;;;;89.63;48.43;;;;;;;;;;2079266;28;20198;-58
2021/11/03 02:28:12;;;;;;;90.93;50.07;;;;;;;;;;2072652;28;20179;-57
2021/11/03 02:29:16;;;;;;;88.53;52.37;;;;;;;;;;2088517;28;20171;-56
2021/11/03 02:30:18;;;;;;;95.50;51.97;;;;;;;;;;2081207;28;20645;-56
2021/11/03 02:31:33;;;;;;;97.87;50.80;;;;;;;;;;2062206;28;20293;-55
2021/11/03 02:32:34;;;;;;;91.80;49.43;;;;;;;;;;2070583;28;20264;-56
2021/11/03 02:33:35;;;;;;;93.23;49.93;;;;;;;;;;2085010;28;20171;-57
2021/11/03 02:34:36;;;;;;;99.53;52.03;;;;;;;;;;2070185;28;20204;-57
2021/11/03 02:35:37;;;;;;;90.40;49.60;;;;;;;;;;2085622;28;20184;-57
2021/11/03 02:36:49;;;;;;;87.80;48.50;;;;;;;;;;2087458;28;20207;-56
2021/11/03 02:37:51;;;;;;;91.80;50.93;;;;;;;;;;2084110;28;20177;-56
2021/11/03 02:38:52;;;;;;;93.30;51.90;;;;;;;;;;2088305;28;20183;-56
2021/11/03 02:40:01;;;;;;;91.23;50.60;;;;;;;;;;2082259;28;20637;-55
2021/11/03 02:41:06;;;;;;;81.70;46.27;;;;;;;;;;2078283;28;20183;-58
2021/11/03 02:42:07;;;;;;;82.67;47.93;;;;;;;;;;2075735;28;20172;-58
2021/11/03 02:43:36;;;;;;;80.17;48.57;;;;;;;;;;2085310;28;21487;-57
2021/11/03 02:44:38;;;;;;;98.57;51.63;;;;;;;;;;2065814;28;20213;-59
2021/11/03 02:46:08;;;;;;;87.90;49.87;;;;;;;;;;2073496;28;20614;-59
2021/11/03 02:47:08;;;;;;;86.23;48.23;;;;;;;;;;2065672;28;20195;-54
2021/11/03 02:48:09;;;;;;;93.83;52.33;;;;;;;;;;2068543;28;20180;-59
2021/11/03 02:49:10;;;;;;;91.37;49.33;;;;;;;;;;2075472;28;20183;-59
2021/11/03 02:50:12;;;;;;;93.67;50.57;;;;;;;;;;2075481;28;20576;-57
2021/11/03 02:51:14;;;;;;;102.43;51.03;;;;;;;;;;2085992;28;20196;-59
2021/11/03 02:52:17;;;;;;;93.70;52.97;;;;;;;;;;2075911;28;20176;-58
2021/11/03 02:53:18;;;;;;;95.73;51.03;;;;;;;;;;2067709;28;20177;-57
2021/11/03 02:54:19;;;;;;;98.70;52.23;;;;;;;;;;2067982;28;20204;-58
2021/11/03 02:55:21;;;;;;;92.27;50.77;;;;;;;;;;2072615;28;20661;-57
2021/11/03 02:56:23;;;;;;;95.83;53.53;;;;;;;;;;2072739;28;20197;-54
2021/11/03 02:57:27;;;;;;;97.47;53.80;;;;;;;;;;2081166;28;20176;-54
2021/11/03 02:58:27;;;;;;;96.67;52.87;;;;;;;;;;2079140;28;20180;-57
2021/11/03 02:59:27;;;;;;;98.00;53.20;;;;;;;;;;2069823;28;20199;-55
2021/11/03 03:00:28;;;;;;;104.17;53.77;;;;;;;;;;2068518;28;20288;-56
2021/11/03 03:01:41;;;;;;;100.20;55.27;;;;;;;;;;2082441;28;20669;-57
2021/11/03 03:02:41;;;;;;;97.20;53.33;;;;;;;;;;2081911;28;20187;-52
2021/11/03 03:03:45;;;;;;;108.13;57.97;;;;;;;;;;2076874;28;20227;-56
2021/11/03 03:04:48;;;;;;;120.17;57.23;;;;;;;;;;2073877;28;20208;-56
2021/11/03 03:05:58;;;;;;;107.53;57.43;;;;;;;;;;2065284;28;20690;-60
2021/11/03 03:06:58;;;;;;;104.90;55.97;;;;;;;;;;2072981;28;20177;-54
2021/11/03 03:07:58;;;;;;;105.23;55.80;;;;;;;;;;2081241;28;20796;-56
2021/11/03 03:08:59;;;;;;;106.80;52.93;;;;;;;;;;2073653;28;20192;-55
2021/11/03 03:10:01;;;;;;;104.80;54.67;;;;;;;;;;2072176;28;20185;-56
2021/11/03 03:11:02;;;;;;;107.87;54.83;;;;;;;;;;2081834;28;20295;-59
2021/11/03 03:12:04;;;;;;;102.03;52.77;;;;;;;;;;2085098;28;20178;-57
2021/11/03 03:13:10;;;;;;;93.03;51.90;;;;;;;;;;2072018;28;20183;-56
2021/11/03 03:14:10;;;;;;;94.73;52.50;;;;;;;;;;2081815;28;20219;-56
2021/11/03 03:15:11;;;;;;;97.00;50.40;;;;;;;;;;2078231;28;20171;-57
2021/11/03 03:16:12;;;;;;;90.83;48.83;;;;;;;;;;2080334;28;20263;-56
2021/11/03 03:17:13;;;;;;;95.50;51.13;;;;;;;;;;2074369;28;20173;-59
2021/11/03 03:18:13;;;;;;;85.43;50.20;;;;;;;;;;2078467;28;20165;-58
2021/11/03 03:19:14;;;;;;;91.20;50.30;;;;;;;;;;2075545;28;20181;-58
2021/11/03 03:20:14;;;;;;;87.50;50.00;;;;;;;;;;2067706;28;20199;-55
2021/11/03 03:21:17;;;;;;;85.77;49.63;;;;;;;;;;2070939;28;20235;-54
2021/11/03 03:22:20;;;;;;;86.37;49.60;;;;;;;;;;2071555;28;20247;-53
2021/11/03 03:23:26;;;;;;;95.77;51.87;;;;;;;;;;2072200;28;20177;-56
2021/11/03 03:24:26;;;;;;;90.80;51.20;;;;;;;;;;2079391;28;20631;-55
2021/11/03 03:25:27;;;;;;;86.57;45.13;;;;;;;;;;2088741;28;20248;-55
2021/11/03 03:26:28;;;;;;;79.87;44.47;;;;;;;;;;2074182;28;20538;-58
2021/11/03 03:27:28;;;;;;;82.90;45.27;;;;;;;;;;2069306;28;20224;-56
2021/11/03 03:28:29;;;;;;;76.73;46.67;;;;;;;;;;2077217;28;20621;-54
2021/11/03 03:29:29;;;;;;;91.40;48.10;;;;;;;;;;2070855;28;20180;-54
2021/11/03 03:30:30;;;;;;;84.23;47.80;;;;;;;;;;2076594;28;20196;-58
2021/11/03 03:31:31;;;;;;;79.10;46.77;;;;;;;;;;2092488;23;20213;-56
2021/11/03 03:32:32;;;;;;;78.07;45.13;;;;;;;;;;2069282;28;20608;-54
2021/11/03 03:33:33;;;;;;;79.00;45.93;;;;;;;;;;2079222;28;20271;-55
2021/11/03 03:34:33;;;;;;;82.87;47.10;;;;;;;;;;2090161;28;20187;-53
2021/11/03 03:35:34;;;;;;;84.87;46.90;;;;;;;;;;2079918;28;20180;-55
2021/11/03 03:36:35;;;;;;;86.90;47.13;;;;;;;;;;2071715;28;20242;-57
2021/11/03 03:37:35;;;;;;;86.03;46.77;;;;;;;;;;2071536;28;20169;-56
2021/11/03 03:38:36;;;;;;;79.37;43.83;;;;;;;;;;2064412;28;20645;-56
2021/11/03 03:39:36;;;;;;;80.23;44.00;;;;;;;;;;2076491;28;20177;-58
2021/11/03 03:40:37;;;;;;;73.30;43.90;;;;;;;;;;2082756;28;20684;-56
2021/11/03 03:41:38;;;;;;;72.93;45.63;;;;;;;;;;2078709;28;20211;-55
2021/11/03 03:42:38;;;;;;;77.77;44.47;;;;;;;;;;2064570;28;20193;-54
2021/11/03 03:43:39;;;;;;;84.73;47.10;;;;;;;;;;2063900;28;20216;-56
2021/11/03 03:44:40;;;;;;;78.37;45.20;;;;;;;;;;2071966;28;20180;-55
2021/11/03 03:45:41;;;;;;;81.20;44.90;;;;;;;;;;2079348;28;20180;-56
2021/11/03 03:46:41;;;;;;;84.77;44.17;;;;;;;;;;2079415;28;20219;-54
2021/11/03 03:47:42;;;;;;;94.40;49.93;;;;;;;;;;2072416;28;20250;-52
2021/11/03 03:48:42;;;;;;;81.47;45.37;;;;;;;;;;2078881;28;20172;-54
2021/11/03 03:49:43;;;;;;;81.37;44.53;;;;;;;;;;2079045;28;20677;-54
2021/11/03 03:50:46;;;;;;;90.27;49.07;;;;;;;;;;2071136;28;20882;-57
2021/11/03 03:51:46;;;;;;;85.23;47.87;;;;;;;;;;2056185;28;20268;-55
2021/11/03 03:52:48;;;;;;;92.93;46.80;;;;;;;;;;2056214;28;20174;-56
2021/11/03 03:53:48;;;;;;;87.90;45.97;;;;;;;;;;2072502;28;20175;-55
2021/11/03 03:54:50;;;;;;;89.17;45.87;;;;;;;;;;2068154;28;20177;-52
2021/11/03 03:55:51;;;;;;;83.37;43.47;;;;;;;;;;2072598;28;20567;-54
2021/11/03 03:56:51;;;;;;;73.67;41.43;;;;;;;;;;2070668;28;20173;-52
2021/11/03 03:57:52;;;;;;;75.60;44.03;;;;;;;;;;2071562;28;20636;-56
2021/11/03 03:58:53;;;;;;;79.23;41.77;;;;;;;;;;2061371;28;20228;-52
2021/11/03 03:59:53;;;;;;;74.50;41.07;;;;;;;;;;2063883;28;20215;-55
2021/11/03 04:00:54;;;;;;;80.13;40.50;;;;;;;;;;2072157;28;20202;-54
2021/11/03 04:01:54;;;;;;;69.67;41.67;;;;;;;;;;2057788;28;20194;-56
2021/11/03 04:02:55;;;;;;;74.53;43.43;;;;;;;;;;2058049;28;20188;-52
2021/11/03 04:03:55;;;;;;;76.03;44.10;;;;;;;;;;2064856;28;20268;-54
2021/11/03 04:04:56;;;;;;;70.93;42.30;;;;;;;;;;2076650;28;20176;-56
2021/11/03 04:05:59;;;;;;;85.10;45.33;;;;;;;;;;2080807;28;20617;-56
2021/11/03 04:06:59;;;;;;;88.10;47.47;;;;;;;;;;2080823;28;20279;-52
2021/11/03 04:07:59;;;;;;;94.87;50.93;;;;;;;;;;2079484;28;20176;-53
2021/11/03 04:09:00;;;;;;;87.00;47.73;;;;;;;;;;2063968;28;20704;-53
2021/11/03 04:10:00;;;;;;;87.13;43.53;;;;;;;;;;2071372;28;20590;-55
2021/11/03 04:11:01;;;;;;;80.10;42.00;;;;;;;;;;2079368;28;20338;-56
2021/11/03 04:12:02;;;;;;;75.43;41.73;;;;;;;;;;2079477;28;20219;-56
2021/11/03 04:13:03;;;;;;;75.70;43.57;;;;;;;;;;2072997;28;20221;-57
2021/11/03 04:14:03;;;;;;;83.70;42.60;;;;;;;;;;2071925;28;20560;-57
2021/11/03 04:15:05;;;;;;;77.87;42.10;;;;;;;;;;2065674;28;20240;-56
2021/11/03 04:16:06;;;;;;;91.60;48.97;;;;;;;;;;2074387;28;20621;-56
2021/11/03 04:17:06;;;;;;;90.30;47.97;;;;;;;;;;2076037;28;20181;-54
2021/11/03 04:18:07;;;;;;;90.33;49.57;;;;;;;;;;2087956;28;20605;-54
2021/11/03 04:19:08;;;;;;;100.03;48.37;;;;;;;;;;2077589;28;20250;-55
2021/11/03 04:20:10;;;;;;;96.43;51.87;;;;;;;;;;2076472;28;20185;-56
2021/11/03 04:21:10;;;;;;;98.97;50.40;;;;;;;;;;2073012;28;20745;-55
2021/11/03 04:22:11;;;;;;;94.47;49.70;;;;;;;;;;2064465;28;20307;-58
2021/11/03 04:23:16;;;;;;;89.93;49.80;;;;;;;;;;2067155;28;20642;-55
2021/11/03 04:24:17;;;;;;;87.00;47.40;;;;;;;;;;2082076;28;20168;-55
2021/11/03 04:25:17;;;;;;;86.17;45.17;;;;;;;;;;2082903;28;20702;-54
2021/11/03 04:26:27;;;;;;;84.50;44.53;;;;;;;;;;2074156;28;20280;-56
2021/11/03 04:27:28;;;;;;;79.40;43.23;;;;;;;;;;2066073;28;20297;-56
2021/11/03 04:28:28;;;;;;;82.60;42.87;;;;;;;;;;2079784;28;20180;-55
2021/11/03 04:29:28;;;;;;;89.17;43.40;;;;;;;;;;2082426;28;20172;-55
2021/11/03 04:30:30;;;;;;;73.60;39.80;;;;;;;;;;2065242;28;20205;-51
2021/11/03 04:31:30;;;;;;;75.37;39.57;;;;;;;;;;2063281;28;20204;-62
2021/11/03 04:32:31;;;;;;;70.63;37.67;;;;;;;;;;2065183;28;20814;-54
2021/11/03 04:33:31;;;;;;;63.60;38.77;;;;;;;;;;2063372;28;20622;-57
2021/11/03 04:34:32;;;;;;;67.73;39.87;;;;;;;;;;2082399;28;20582;-60
2021/11/03 04:35:36;;;;;;;78.63;43.13;;;;;;;;;;2090009;28;20718;-54
2021/11/03 04:36:36;;;;;;;83.97;44.23;;;;;;;;;;2080487;28;20226;-56
2021/11/03 04:37:38;;;;;;;87.57;44.50;;;;;;;;;;2089594;28;20164;-61
2021/11/03 04:38:38;;;;;;;78.00;44.23;;;;;;;;;;2086714;28;20175;-55
2021/11/03 04:39:39;;;;;;;81.00;44.37;;;;;;;;;;2073716;28;20161;-57
2021/11/03 04:40:39;;;;;;;86.37;45.93;;;;;;;;;;2061218;28;20202;-56
2021/11/03 04:41:40;;;;;;;88.73;48.23;;;;;;;;;;2072899;28;20192;-57
2021/11/03 04:42:41;;;;;;;90.67;50.13;;;;;;;;;;2073506;28;20176;-53
2021/11/03 04:43:41;;;;;;;91.37;47.30;;;;;;;;;;2073814;28;20275;-56
2021/11/03 04:44:41;;;;;;;96.73;46.60;;;;;;;;;;2073785;28;21085;-56
2021/11/03 04:45:43;;;;;;;86.00;43.00;;;;;;;;;;2082073;28;20184;-56
2021/11/03 04:46:43;;;;;;;81.90;41.70;;;;;;;;;;2073664;28;20284;-55
2021/11/03 04:47:46;;;;;;;78.10;42.40;;;;;;;;;;2081368;28;20198;-56
2021/11/03 04:48:47;;;;;;;87.53;42.23;;;;;;;;;;2081580;28;20180;-54
2021/11/03 04:49:49;;;;;;;89.50;43.10;;;;;;;;;;2073859;28;20188;-58
2021/11/03 04:50:52;;;;;;;82.10;41.90;;;;;;;;;;2073120;28;20215;-56
2021/11/03 04:51:54;;;;;;;87.13;43.37;;;;;;;;;;2066057;28;20575;-57
2021/11/03 04:52:56;;;;;;;86.73;45.23;;;;;;;;;;2065677;28;20176;-56
2021/11/03 04:53:56;;;;;;;93.50;46.30;;;;;;;;;;2065546;28;20878;-56
2021/11/03 04:54:57;;;;;;;84.47;44.90;;;;;;;;;;2060144;28;20175;-56
2021/11/03 04:55:57;;;;;;;79.07;43.20;;;;;;;;;;2073676;28;20165;-58
2021/11/03 04:56:58;;;;;;;85.20;43.20;;;;;;;;;;2073733;28;20684;-56
2021/11/03 04:57:58;;;;;;;86.87;45.77;;;;;;;;;;2065926;28;20172;-52
2021/11/03 04:58:58;;;;;;;93.03;46.10;;;;;;;;;;2065775;28;20202;-55
2021/11/03 05:00:04;;;;;;;93.40;47.07;;;;;;;;;;2066194;28;20244;-55
2021/11/03 05:01:04;;;;;;;94.50;49.37;;;;;;;;;;2064568;28;20165;-55
2021/11/03 05:02:05;;;;;;;97.50;47.10;;;;;;;;;;2073809;28;20655;-55
2021/11/03 05:03:06;;;;;;;101.23;49.53;;;;;;;;;;2073512;28;20293;-59
2021/11/03 05:04:06;;;;;;;92.23;44.83;;;;;;;;;;2064945;28;20186;-56
2021/11/03 05:05:08;;;;;;;89.43;44.43;;;;;;;;;;2065671;28;20190;-55
2021/11/03 05:06:09;;;;;;;90.50;44.03;;;;;;;;;;2065206;28;20189;-56
2021/11/03 05:07:10;;;;;;;83.30;43.63;;;;;;;;;;2065296;28;20554;-54
2021/11/03 05:08:11;;;;;;;88.87;42.80;;;;;;;;;;2076289;28;20613;-57
2021/11/03 05:09:12;;;;;;;82.20;41.87;;;;;;;;;;2081843;28;20224;-54
2021/11/03 05:10:12;;;;;;;76.50;39.43;;;;;;;;;;2072943;28;20173;-55
2021/11/03 05:11:13;;;;;;;78.83;42.13;;;;;;;;;;2081461;28;20207;-55
2021/11/03 05:12:13;;;;;;;89.00;44.07;;;;;;;;;;2076986;28;20296;-54
2021/11/03 05:13:14;;;;;;;92.03;43.27;;;;;;;;;;2090374;28;20742;-57
2021/11/03 05:14:14;;;;;;;77.37;42.73;;;;;;;;;;2086887;28;21015;-53
2021/11/03 05:15:19;;;;;;;77.70;40.77;;;;;;;;;;2072287;28;20555;-54
2021/11/03 05:16:22;;;;;;;86.07;42.70;;;;;;;;;;2072034;28;20192;-54
2021/11/03 05:17:25;;;;;;;80.07;40.50;;;;;;;;;;2086357;28;20179;-57
2021/11/03 05:18:28;;;;;;;79.80;43.27;;;;;;;;;;2079655;28;20564;-53
2021/11/03 05:19:30;;;;;;;87.87;46.00;;;;;;;;;;2065724;28;20189;-53
2021/11/03 05:20:52;;;;;;;82.20;44.17;;;;;;;;;;2078431;28;22692;-55
2021/11/03 05:21:53;;;;;;;84.00;43.20;;;;;;;;;;2081309;28;20200;-54
2021/11/03 05:22:54;;;;;;;81.73;40.67;;;;;;;;;;2058083;28;20174;-55
2021/11/03 05:23:54;;;;;;;89.30;43.93;;;;;;;;;;2073453;28;20616;-54
2021/11/03 05:24:55;;;;;;;84.00;42.23;;;;;;;;;;2082500;28;20219;-53
2021/11/03 05:25:55;;;;;;;81.80;42.17;;;;;;;;;;2082041;28;20264;-56
2021/11/03 05:26:56;;;;;;;77.23;40.70;;;;;;;;;;2081991;28;20219;-53
2021/11/03 05:27:57;;;;;;;85.70;43.57;;;;;;;;;;2080649;28;20750;-54
2021/11/03 05:28:58;;;;;;;86.93;41.60;;;;;;;;;;2073335;28;20175;-55
2021/11/03 05:29:59;;;;;;;85.50;43.37;;;;;;;;;;2072740;28;20678;-55
2021/11/03 05:31:00;;;;;;;94.93;47.13;;;;;;;;;;2082128;28;20204;-56
2021/11/03 05:32:00;;;;;;;101.27;45.77;;;;;;;;;;2071225;28;20204;-55
2021/11/03 05:33:00;;;;;;;85.30;42.70;;;;;;;;;;2073249;28;20172;-55
2021/11/03 05:34:00;;;;;;;79.10;42.20;;;;;;;;;;2077008;28;20217;-56
2021/11/03 05:35:01;;;;;;;83.63;44.10;;;;;;;;;;2082412;28;20157;-52
2021/11/03 05:36:01;;;;;;;79.37;42.20;;;;;;;;;;2081965;28;20190;-54
2021/11/03 05:37:01;;;;;;;87.23;41.37;;;;;;;;;;2082130;28;20200;-57
2021/11/03 05:38:02;;;;;;;71.73;41.63;;;;;;;;;;2074717;28;20661;-57
2021/11/03 05:39:05;;;;;;;74.83;41.43;;;;;;;;;;2081564;28;20582;-54
2021/11/03 05:40:07;;;;;;;82.07;41.77;;;;;;;;;;2077009;28;20208;-57
2021/11/03 05:41:07;;;;;;;77.13;40.57;;;;;;;;;;2081191;28;20196;-54
2021/11/03 05:42:08;;;;;;;72.80;39.20;;;;;;;;;;2068328;28;20187;-56
2021/11/03 05:43:08;;;;;;;79.93;40.43;;;;;;;;;;2073266;28;20181;-55
2021/11/03 05:44:10;;;;;;;75.70;40.47;;;;;;;;;;2084265;28;20172;-56
2021/11/03 05:45:10;;;;;;;72.73;38.57;;;;;;;;;;2084473;28;20191;-58
2021/11/03 05:46:19;;;;;;;81.70;39.77;;;;;;;;;;2085208;28;20238;-57
2021/11/03 05:47:24;;;;;;;75.77;39.50;;;;;;;;;;2081629;28;20200;-56
2021/11/03 05:48:26;;;;;;;73.90;38.53;;;;;;;;;;2091166;28;20199;-58
2021/11/03 05:49:29;;;;;;;68.07;39.27;;;;;;;;;;2098945;28;20301;-58
2021/11/03 05:50:31;;;;;;;72.17;40.50;;;;;;;;;;2088296;28;20227;-57
2021/11/03 05:51:32;;;;;;;81.43;41.80;;;;;;;;;;2081485;28;20176;-58
2021/11/03 05:52:33;;;;;;;85.83;42.70;;;;;;;;;;2073339;28;20205;-58
2021/11/03 05:53:34;;;;;;;77.33;41.50;;;;;;;;;;2073810;28;20200;-54
2021/11/03 05:54:34;;;;;;;86.77;43.40;;;;;;;;;;2073244;28;20220;-54
2021/11/03 05:55:36;;;;;;;84.47;42.80;;;;;;;;;;2074104;28;20251;-54
2021/11/03 05:56:37;;;;;;;85.27;45.53;;;;;;;;;;2081513;28;20263;-55
2021/11/03 05:57:38;;;;;;;93.67;45.23;;;;;;;;;;2081597;28;20545;-54
2021/11/03 05:58:38;;;;;;;94.77;43.30;;;;;;;;;;2082001;28;20641;-55